Time;durP1;ratioP1;P1;durP2;ratioP2;P2;SDS_P1;SDS_P2;PMS_P1;PMS_P2;Temp;Humidity;BMP_temperature;BMP_pressure;BME280_temperature;BME280_humidity;BME280_pressure;Samples;Min_cycle;Max_cycle;Signal;HPM_P1;HPM_P2
2022/06/12 00:01:18;;;;;;;11.70;3.42;;;;;;;12.69;90.33;102257.47;5113001;28;20100;-72
2022/06/12 00:03:44;;;;;;;13.00;3.50;;;;;;;12.64;90.10;102252.25;5111876;28;20035;-72
2022/06/12 00:06:09;;;;;;;10.13;3.65;;;;;;;12.57;89.82;102254.97;5112993;28;20028;-72
2022/06/12 00:08:38;;;;;;;10.50;3.67;;;;;;;12.48;90.42;102244.59;5112904;28;20470;-72
2022/06/12 00:11:05;;;;;;;13.00;3.50;;;;;;;12.46;91.07;102246.34;5111722;28;20024;-71
2022/06/12 00:13:34;;;;;;;7.43;3.70;;;;;;;12.50;90.90;102250.69;5114869;28;20487;-72
2022/06/12 00:16:01;;;;;;;6.68;3.72;;;;;;;12.46;90.46;102247.22;5115567;28;20035;-72
2022/06/12 00:18:27;;;;;;;7.90;3.80;;;;;;;12.40;90.35;102236.81;5116465;28;20042;-72
2022/06/12 00:21:10;;;;;;;13.63;4.43;;;;;;;12.35;90.60;102244.69;5116223;27;20031;-72
2022/06/12 00:23:47;;;;;;;10.52;4.38;;;;;;;12.34;90.87;102244.72;5115611;28;20540;-72
2022/06/12 00:26:15;;;;;;;17.08;4.32;;;;;;;12.27;90.81;102243.91;5116286;28;20493;-72
2022/06/12 00:28:41;;;;;;;11.85;4.10;;;;;;;12.31;91.13;102242.97;5116184;28;20035;-72
2022/06/12 00:31:07;;;;;;;13.45;4.40;;;;;;;12.29;90.87;102242.13;5115627;28;20019;-72
2022/06/12 00:33:32;;;;;;;11.00;4.35;;;;;;;12.31;91.17;102245.59;5116306;28;20012;-72
2022/06/12 00:35:58;;;;;;;11.75;4.22;;;;;;;12.28;91.13;102242.13;5115802;28;20474;-72
2022/06/12 00:38:24;;;;;;;12.63;4.55;;;;;;;12.21;91.24;102238.72;5115202;28;20401;-72
2022/06/12 00:40:49;;;;;;;10.27;4.25;;;;;;;12.21;91.48;102243.94;5115541;28;20020;-72
2022/06/12 00:43:15;;;;;;;10.45;4.28;;;;;;;12.10;91.47;102227.47;5115894;28;20485;-72
2022/06/12 00:45:53;;;;;;;9.73;4.10;;;;;;;12.11;91.43;102245.75;5115106;28;20032;-72
2022/06/12 00:48:30;;;;;;;13.40;4.18;;;;;;;12.07;90.87;102249.28;5116103;27;20023;-72
2022/06/12 00:51:01;;;;;;;9.93;3.88;;;;;;;12.03;92.37;102244.06;5115686;28;20024;-72
2022/06/12 00:53:38;;;;;;;11.15;4.18;;;;;;;11.99;92.58;102252.81;5115437;28;20497;-72
2022/06/12 00:56:17;;;;;;;9.88;3.60;;;;;;;11.93;92.35;102256.31;5115538;28;20063;-72
2022/06/12 00:58:48;;;;;;;11.52;4.10;;;;;;;11.83;93.14;102249.41;5114616;28;20069;-72
2022/06/12 01:01:20;;;;;;;11.35;4.35;;;;;;;11.73;93.12;102253.81;5115713;28;20050;-71
2022/06/12 01:06:33;;;;;;;11.07;4.15;;;;;;;11.61;93.66;102252.16;5115032;28;20498;-72
2022/06/12 01:09:00;;;;;;;12.45;4.70;;;;;;;11.57;93.48;102239.97;5115391;28;20026;-72
2022/06/12 01:11:25;;;;;;;8.60;4.65;;;;;;;11.55;93.47;102233.03;5115461;28;20031;-72
2022/06/12 01:13:51;;;;;;;9.30;4.60;;;;;;;11.57;93.31;102244.31;5114332;28;20036;-72
2022/06/12 01:16:20;;;;;;;8.35;4.07;;;;;;;11.53;93.69;102245.22;5115261;28;20137;-72
2022/06/12 01:18:52;;;;;;;12.25;4.50;;;;;;;11.49;93.32;102245.22;5115207;28;20076;-72
2022/06/12 01:21:51;;;;;;;13.02;4.47;;;;;;;11.57;93.58;102250.41;5114683;28;20046;-72
2022/06/12 01:24:37;;;;;;;13.85;4.10;;;;;;;11.49;93.09;102245.22;5103452;28;20376;-72
2022/06/12 01:27:16;;;;;;;10.80;3.88;;;;;;;11.38;93.68;102254.88;5114071;28;20103;-72
2022/06/12 01:30:04;;;;;;;14.85;5.32;;;;;;;11.40;92.91;102247.88;5114894;28;20046;-72
2022/06/12 01:32:53;;;;;;;13.00;4.90;;;;;;;11.34;93.66;102249.66;5115115;28;20023;-72
2022/06/12 01:35:25;;;;;;;13.30;4.95;;;;;;;11.36;93.99;102253.13;5103138;28;20040;-72
2022/06/12 01:38:11;;;;;;;11.15;5.05;;;;;;;11.34;93.83;102244.44;5114813;28;20043;-71
2022/06/12 01:40:53;;;;;;;12.60;4.95;;;;;;;11.32;94.08;102241.84;5114078;28;20463;-72
2022/06/12 01:43:33;;;;;;;9.15;4.43;;;;;;;11.25;93.98;102245.34;5114786;28;20020;-72
2022/06/12 01:46:05;;;;;;;13.05;4.50;;;;;;;11.19;94.11;102237.53;5114644;28;20056;-72
2022/06/12 01:49:10;;;;;;;12.60;3.95;;;;;;;11.07;92.87;102224.53;5113991;28;20098;-72
2022/06/12 01:51:43;;;;;;;12.13;4.53;;;;;;;10.96;94.47;102228.03;5073667;27;20035;-72
2022/06/12 01:54:08;;;;;;;13.13;4.13;;;;;;;10.98;94.88;102238.47;5114816;27;20038;-72
2022/06/12 01:56:39;;;;;;;13.45;4.80;;;;;;;10.95;95.04;102236.75;5113732;28;20039;-72
2022/06/12 01:59:52;;;;;;;12.77;4.20;;;;;;;10.95;94.87;102233.25;5114329;28;20072;-72
2022/06/12 02:02:34;;;;;;;9.32;4.32;;;;;;;10.92;94.91;102233.25;5100151;28;20407;-72
2022/06/12 02:05:18;;;;;;;10.77;4.40;;;;;;;10.92;94.84;102234.16;5114222;28;20027;-72
2022/06/12 02:07:52;;;;;;;8.23;4.18;;;;;;;10.91;95.00;102228.91;5114140;28;20111;-72
2022/06/12 02:10:33;;;;;;;10.82;4.43;;;;;;;10.91;95.16;102235.00;5113423;28;20020;-72
2022/06/12 02:13:11;;;;;;;11.38;4.35;;;;;;;10.85;95.27;102229.78;5113860;28;20376;-72
2022/06/12 02:15:50;;;;;;;13.10;4.78;;;;;;;10.80;95.79;102238.53;5113428;28;20024;-72
2022/06/12 02:19:09;;;;;;;12.15;5.00;;;;;;;10.82;95.24;102242.84;5114130;28;20434;-72
2022/06/12 02:21:42;;;;;;;12.55;4.68;;;;;;;10.77;95.84;102242.00;5079605;28;20055;-72
2022/06/12 02:24:16;;;;;;;;;;;;;;;10.86;92.93;102251.56;5113859;28;20059;-72
2022/06/12 02:26:57;;;;;;;9.77;4.50;;;;;;;10.81;94.88;102254.16;5113883;28;19911;-72
2022/06/12 02:29:28;;;;;;;10.10;4.57;;;;;;;10.77;95.74;102247.22;5114178;28;20357;-72
2022/06/12 02:31:57;;;;;;;8.55;4.72;;;;;;;10.72;95.96;102239.38;5113027;28;20110;-72
2022/06/12 02:34:28;;;;;;;8.35;4.53;;;;;;;10.76;96.22;102241.13;5113729;28;20031;-72
2022/06/12 02:37:00;;;;;;;14.20;5.35;;;;;;;10.71;96.29;102235.06;5111834;28;20435;-72
2022/06/12 02:39:31;;;;;;;11.68;5.03;;;;;;;10.67;96.66;102229.84;5113709;28;20103;-72
2022/06/12 02:42:04;;;;;;;9.57;4.72;;;;;;;10.68;96.80;102236.78;5113383;28;20612;-71
2022/06/12 02:44:56;;;;;;;10.18;5.10;;;;;;;10.62;96.61;102232.44;5112964;28;20122;-72
2022/06/12 02:47:25;;;;;;;10.88;5.03;;;;;;;10.58;97.28;102228.13;5113832;28;20028;-72
2022/06/12 02:49:55;;;;;;;11.48;4.95;;;;;;;10.60;97.66;102231.59;5113377;28;20069;-71
2022/06/12 02:52:37;;;;;;;8.77;4.43;;;;;;;10.57;97.19;102212.50;5113061;28;20054;-72
2022/06/12 02:55:05;;;;;;;10.93;4.55;;;;;;;10.60;97.22;102221.19;5113392;28;20031;-72
2022/06/12 02:57:45;;;;;;;9.43;4.47;;;;;;;10.58;97.70;102220.28;5113331;28;20085;-72
2022/06/12 03:00:14;;;;;;;12.73;4.70;;;;;;;10.58;97.54;102224.66;5113394;28;20441;-72
2022/06/12 03:02:57;;;;;;;13.57;4.65;;;;;;;10.54;97.98;102224.66;5113387;28;20023;-72
2022/06/12 03:05:30;;;;;;;10.18;5.35;;;;;;;10.48;98.08;102219.44;5112747;28;20061;-72
2022/06/12 03:08:00;;;;;;;12.53;5.17;;;;;;;10.50;98.52;102224.66;5113214;28;20019;-72
2022/06/12 03:10:30;;;;;;;13.07;5.13;;;;;;;10.50;98.46;102220.31;5113384;28;20024;-72
2022/06/12 03:12:56;;;;;;;14.10;5.20;;;;;;;10.52;98.68;102221.16;5112294;28;20053;-72
2022/06/12 03:15:37;;;;;;;9.88;5.43;;;;;;;10.52;98.49;102220.31;5113087;28;20027;-72
2022/06/12 03:18:07;;;;;;;10.07;5.32;;;;;;;10.55;98.62;102228.97;5113119;28;20072;-72
2022/06/12 03:20:42;;;;;;;13.07;5.35;;;;;;;10.58;99.49;102235.09;5112542;28;20093;-72
2022/06/12 03:23:49;;;;;;;12.80;5.38;;;;;;;10.59;98.62;102236.81;5113207;28;20038;-72
2022/06/12 03:26:38;;;;;;;14.88;5.75;;;;;;;10.58;99.70;102229.88;5101710;28;20036;-72
2022/06/12 03:29:24;;;;;;;14.00;6.13;;;;;;;10.58;99.79;102220.28;5112978;28;20031;-72
2022/06/12 03:32:01;;;;;;;12.23;5.90;;;;;;;10.64;99.95;102229.84;5112727;28;20066;-72
2022/06/12 03:34:36;;;;;;;14.98;5.63;;;;;;;10.72;100.00;102228.09;5112289;28;20024;-72
2022/06/12 03:37:18;;;;;;;11.35;5.90;;;;;;;10.75;100.00;102228.94;5112729;28;20024;-72
2022/06/12 03:39:44;;;;;;;12.07;6.25;;;;;;;10.78;100.00;102233.31;5112872;28;20031;-72
2022/06/12 03:42:29;;;;;;;11.30;6.22;;;;;;;10.77;100.00;102231.56;5112150;28;20027;-72
2022/06/12 03:45:04;;;;;;;16.35;6.60;;;;;;;10.75;100.00;102239.38;5112779;28;20467;-72
2022/06/12 03:47:33;;;;;;;10.15;6.45;;;;;;;10.74;100.00;102236.78;5112863;28;20514;-72
2022/06/12 03:50:04;;;;;;;14.40;6.50;;;;;;;10.74;100.00;102239.41;5116731;28;20020;-72
2022/06/12 03:52:38;;;;;;;15.20;6.30;;;;;;;10.74;100.00;102235.03;5116935;28;20077;-72
2022/06/12 03:55:10;;;;;;;15.82;6.68;;;;;;;10.73;100.00;102237.66;5115660;28;20467;-72
2022/06/12 03:57:52;;;;;;;11.15;5.88;;;;;;;10.75;100.00;102239.38;5116651;28;20071;-72
2022/06/12 04:00:31;;;;;;;11.85;5.88;;;;;;;10.78;100.00;102236.78;5116702;28;20456;-72
2022/06/12 04:03:00;;;;;;;14.20;6.18;;;;;;;10.80;100.00;102239.41;5115610;28;20401;-72
2022/06/12 04:05:42;;;;;;;13.98;6.13;;;;;;;10.82;100.00;102241.97;5116548;28;20111;-72
2022/06/12 04:08:15;;;;;;;14.57;5.95;;;;;;;10.84;100.00;102229.81;5116138;28;20019;-72
2022/06/12 04:10:41;;;;;;;14.02;5.90;;;;;;;10.88;100.00;102235.00;5116371;28;20030;-72
2022/06/12 04:13:14;;;;;;;15.57;6.47;;;;;;;10.90;100.00;102237.63;5116687;28;20023;-71
2022/06/12 04:15:45;;;;;;;11.87;6.13;;;;;;;10.91;100.00;102235.00;5115884;28;20047;-72
2022/06/12 04:18:11;;;;;;;11.32;6.25;;;;;;;10.96;100.00;102235.00;5116456;28;20810;-72
2022/06/12 04:20:50;;;;;;;11.77;6.55;;;;;;;10.97;100.00;102229.78;5116557;28;20020;-72
2022/06/12 04:23:38;;;;;;;9.48;6.18;;;;;;;11.06;100.00;102238.47;5115631;28;20071;-72
2022/06/12 04:26:12;;;;;;;11.57;5.30;;;;;;;11.09;100.00;102238.47;5115904;28;20076;-72
2022/06/12 04:28:42;;;;;;;10.95;6.05;;;;;;;11.12;100.00;102235.84;5116423;28;20483;-72
2022/06/12 04:31:18;;;;;;;11.93;5.88;;;;;;;11.15;100.00;102243.63;5115558;28;20065;-72
2022/06/12 04:34:01;;;;;;;14.90;6.60;;;;;;;11.20;99.77;102244.50;5116035;28;20015;-72
2022/06/12 04:36:26;;;;;;;12.10;5.63;;;;;;;11.24;99.94;102246.22;5115370;28;20060;-72
2022/06/12 04:38:53;;;;;;;13.00;5.63;;;;;;;11.33;100.00;102254.00;5115937;28;20084;-72
2022/06/12 04:41:28;;;;;;;14.20;5.72;;;;;;;11.35;99.68;102254.88;5116219;28;20024;-72
2022/06/12 04:43:53;;;;;;;10.30;5.82;;;;;;;11.37;99.56;102254.84;5114964;28;20059;-72
2022/06/12 04:46:20;;;;;;;12.95;5.78;;;;;;;11.41;99.49;102254.84;5115884;28;20048;-72
2022/06/12 04:48:48;;;;;;;10.20;5.45;;;;;;;11.46;99.03;102255.69;5115543;28;20031;-72
2022/06/12 04:51:13;;;;;;;17.25;5.25;;;;;;;11.52;99.23;102253.94;5115231;28;20032;-72
2022/06/12 04:53:41;;;;;;;15.23;6.20;;;;;;;11.59;99.10;102245.19;5115868;28;20072;-72
2022/06/12 04:56:08;;;;;;;11.35;5.57;;;;;;;11.63;98.81;102250.38;5115642;28;20066;-71
2022/06/12 04:58:34;;;;;;;14.48;5.57;;;;;;;11.71;98.69;102252.97;5114531;28;20023;-71
2022/06/12 05:01:00;;;;;;;12.55;5.03;;;;;;;11.73;97.59;102244.22;5114818;28;20429;-71
2022/06/12 05:03:26;;;;;;;10.60;5.45;;;;;;;11.78;97.74;102244.22;5115886;28;20019;-72
2022/06/12 05:05:52;;;;;;;9.38;6.15;;;;;;;11.87;97.69;102249.41;5114676;28;20510;-72
2022/06/12 05:08:17;;;;;;;12.15;5.57;;;;;;;11.92;96.91;102250.25;5115590;28;20027;-72
2022/06/12 05:10:43;;;;;;;14.80;5.63;;;;;;;12.00;96.84;102246.69;5115080;28;20111;-72
2022/06/12 05:13:08;;;;;;;12.38;5.47;;;;;;;12.08;96.95;102245.78;5114579;28;20039;-71
2022/06/12 05:15:34;;;;;;;12.35;5.32;;;;;;;12.12;95.95;102241.38;5115329;28;20034;-72
2022/06/12 05:18:00;;;;;;;12.98;5.05;;;;;;;12.19;94.67;102241.31;5114997;28;20058;-72
2022/06/12 05:20:29;;;;;;;11.10;5.88;;;;;;;12.26;95.94;102249.13;5114792;28;20015;-72
2022/06/12 05:22:55;;;;;;;10.25;5.50;;;;;;;12.26;95.11;102239.56;5114922;28;20479;-72
2022/06/12 05:25:21;;;;;;;11.68;5.82;;;;;;;12.37;94.44;102245.53;5115012;28;20020;-72
2022/06/12 05:27:48;;;;;;;14.13;5.97;;;;;;;12.40;93.01;102240.28;5114546;28;20053;-72
2022/06/12 05:30:16;;;;;;;14.00;6.35;;;;;;;12.50;93.70;102232.38;5115024;28;20016;-72
2022/06/12 05:32:43;;;;;;;17.35;5.60;;;;;;;12.54;93.90;102228.84;5113905;27;20501;-72
2022/06/12 05:35:09;;;;;;;12.65;5.55;;;;;;;12.63;93.74;102242.69;5115085;28;20421;-72
2022/06/12 05:37:36;;;;;;;11.73;5.38;;;;;;;12.70;92.91;102243.50;5115064;28;20070;-72
2022/06/12 05:40:06;;;;;;;16.23;5.53;;;;;;;12.79;93.10;102240.78;5113818;28;20023;-72
2022/06/12 05:42:32;;;;;;;15.18;5.75;;;;;;;12.87;89.59;102241.56;5114890;28;20058;-72
2022/06/12 05:44:57;;;;;;;17.27;5.95;;;;;;;12.97;92.09;102244.09;5114397;28;20059;-72
2022/06/12 05:47:22;;;;;;;14.40;5.47;;;;;;;13.03;91.75;102251.88;5114082;28;20102;-72
2022/06/12 05:49:48;;;;;;;17.30;6.00;;;;;;;13.04;91.95;102238.75;5114634;28;20032;-72
2022/06/12 05:52:13;;;;;;;16.67;6.20;;;;;;;13.17;89.59;102252.56;5114839;28;20099;-72
2022/06/12 05:54:38;;;;;;;12.48;6.00;;;;;;;13.26;88.25;102249.03;5113795;28;20061;-72
2022/06/12 05:57:04;;;;;;;14.93;5.65;;;;;;;13.34;89.63;102252.41;5114079;28;20047;-72
2022/06/12 05:59:30;;;;;;;17.33;6.25;;;;;;;13.41;90.79;102251.47;5114464;28;20031;-72
2022/06/12 06:01:55;;;;;;;21.85;6.13;;;;;;;13.49;90.37;102251.34;5113177;28;20035;-72
2022/06/12 06:04:22;;;;;;;18.17;6.18;;;;;;;13.55;90.80;102252.13;5114476;28;20019;-72
2022/06/12 06:06:52;;;;;;;13.75;5.50;;;;;;;13.64;89.53;102252.91;5114250;28;20023;-72
2022/06/12 06:09:18;;;;;;;19.33;5.60;;;;;;;13.72;89.73;102251.91;5113585;28;20016;-72
2022/06/12 06:11:45;;;;;;;18.25;5.90;;;;;;;13.78;90.63;102243.09;5113799;28;20111;-72
2022/06/12 06:14:11;;;;;;;16.05;5.35;;;;;;;13.71;91.08;102229.22;5114104;28;20019;-72
2022/06/12 06:16:39;;;;;;;22.17;7.07;;;;;;;13.98;89.51;102262.00;5113660;28;20349;-72
2022/06/12 06:19:05;;;;;;;24.60;6.63;;;;;;;14.08;88.97;102261.88;5114151;28;20054;-72
2022/06/12 06:21:31;;;;;;;19.65;6.38;;;;;;;14.18;89.77;102266.94;5114298;28;20090;-72
2022/06/12 06:23:56;;;;;;;18.77;6.03;;;;;;;14.26;89.95;102259.81;5112970;28;20497;-72
2022/06/12 06:26:22;;;;;;;17.88;5.85;;;;;;;14.32;89.95;102253.59;5113959;28;20076;-72
2022/06/12 06:28:49;;;;;;;20.38;5.78;;;;;;;14.42;88.40;102249.94;5112810;28;20047;-72
2022/06/12 06:31:15;;;;;;;16.55;5.88;;;;;;;14.56;89.46;102262.00;5113965;27;20478;-72
2022/06/12 06:33:40;;;;;;;26.75;7.57;;;;;;;14.73;89.06;102260.78;5113808;28;20102;-72
2022/06/12 06:36:06;;;;;;;21.33;6.13;;;;;;;15.03;89.79;102261.09;5113134;28;20028;-72
2022/06/12 06:38:31;;;;;;;24.17;5.93;;;;;;;15.27;87.87;102266.75;5113863;28;20086;-72
2022/06/12 06:40:56;;;;;;;20.80;5.90;;;;;;;15.47;85.16;102256.72;5113567;28;20073;-72
2022/06/12 06:43:22;;;;;;;21.30;5.45;;;;;;;15.59;86.04;102264.31;5112798;28;20015;-72
2022/06/12 06:48:32;;;;;;;19.00;5.55;;;;;;;15.77;85.34;102262.25;5114067;28;20124;-72
2022/06/12 06:50:58;;;;;;;23.30;5.55;;;;;;;15.82;85.53;102268.25;5112526;28;20112;-72
2022/06/12 06:53:23;;;;;;;20.23;5.45;;;;;;;15.86;83.71;102268.16;5113645;28;20471;-72
2022/06/12 06:55:49;;;;;;;18.85;5.38;;;;;;;15.86;84.07;102275.19;5113006;28;20066;-73
2022/06/12 06:58:20;;;;;;;21.35;6.68;;;;;;;15.94;84.22;102280.25;5112667;28;20023;-72
2022/06/12 07:00:48;;;;;;;18.20;5.25;;;;;;;15.97;85.70;102267.91;5113374;28;20047;-72
2022/06/12 07:03:14;;;;;;;22.00;5.85;;;;;;;16.21;83.18;102276.97;5113549;28;20102;-72
2022/06/12 07:05:41;;;;;;;18.65;5.15;;;;;;;16.47;80.83;102271.06;5112725;28;20073;-72
2022/06/12 07:08:07;;;;;;;20.13;5.72;;;;;;;16.62;79.24;102269.81;5113316;28;20536;-72
2022/06/12 07:10:34;;;;;;;22.40;5.25;;;;;;;16.79;81.14;102279.94;5113238;28;20028;-72
2022/06/12 07:13:00;;;;;;;15.13;5.43;;;;;;;16.87;78.46;102269.19;5112394;28;20032;-72
2022/06/12 07:15:26;;;;;;;21.02;5.90;;;;;;;16.85;77.91;102267.47;5113273;28;20375;-72
2022/06/12 07:17:54;;;;;;;21.10;5.53;;;;;;;16.82;78.15;102272.81;5112941;28;20061;-73
2022/06/12 07:20:21;;;;;;;13.65;4.63;;;;;;;16.88;78.71;102260.41;5112813;28;20071;-73
2022/06/12 07:22:46;;;;;;;17.05;4.85;;;;;;;17.18;79.32;102275.34;5115852;28;20360;-73
2022/06/12 07:25:13;;;;;;;16.02;5.43;;;;;;;17.36;77.52;102267.78;5119254;28;20103;-72
2022/06/12 07:27:40;;;;;;;21.85;5.32;;;;;;;17.47;75.13;102269.22;5120173;27;20039;-72
2022/06/12 07:30:12;;;;;;;19.23;4.88;;;;;;;17.57;76.91;102268.94;5119923;27;20463;-72
2022/06/12 07:32:38;;;;;;;14.53;4.97;;;;;;;17.68;75.52;102272.13;5119315;27;20118;-72
2022/06/12 07:35:05;;;;;;;19.65;5.97;;;;;;;17.60;75.19;102271.50;5119619;27;20119;-72
2022/06/12 07:37:31;;;;;;;20.35;6.00;;;;;;;17.59;75.31;102275.88;5119835;27;20027;-73
2022/06/12 07:39:57;;;;;;;14.80;4.43;;;;;;;17.58;76.66;102278.59;5118754;27;20031;-72
2022/06/12 07:42:22;;;;;;;19.15;5.68;;;;;;;17.57;73.60;102283.00;5119756;28;20031;-72
2022/06/12 07:44:48;;;;;;;19.08;5.32;;;;;;;17.49;74.86;102275.31;5119584;27;20510;-72
2022/06/12 07:47:13;;;;;;;17.83;5.57;;;;;;;17.50;73.15;102277.03;5119044;27;20020;-72
2022/06/12 07:49:38;;;;;;;19.55;4.65;;;;;;;17.56;72.83;102276.00;5119932;27;20464;-72
2022/06/12 07:52:07;;;;;;;18.65;5.45;;;;;;;17.68;71.01;102277.38;5119380;28;20039;-72
2022/06/12 07:54:34;;;;;;;16.40;5.25;;;;;;;17.78;74.56;102271.81;5119129;27;20054;-73
2022/06/12 07:57:00;;;;;;;12.40;5.00;;;;;;;17.93;74.72;102275.75;5119385;27;20074;-73
2022/06/12 07:59:25;;;;;;;14.88;5.45;;;;;;;17.99;73.82;102277.34;5119814;28;20015;-73
2022/06/12 08:01:52;;;;;;;14.68;5.25;;;;;;;18.13;71.83;102277.75;5118686;27;20023;-72
2022/06/12 08:04:19;;;;;;;19.88;5.72;;;;;;;18.36;71.83;102274.38;5119688;27;20018;-72
2022/06/12 08:06:44;;;;;;;18.13;5.38;;;;;;;18.54;72.01;102277.28;5119219;27;20032;-73
2022/06/12 08:09:11;;;;;;;15.00;5.13;;;;;;;18.67;72.15;102274.19;5118925;28;20019;-73
2022/06/12 08:11:39;;;;;;;17.63;5.93;;;;;;;18.77;69.85;102265.97;5119643;27;20348;-73
2022/06/12 08:14:04;;;;;;;17.58;5.43;;;;;;;18.83;70.40;102271.88;5119348;27;20098;-72
2022/06/12 08:16:30;;;;;;;16.42;4.90;;;;;;;19.14;70.22;102271.66;5118752;27;20059;-73
2022/06/12 08:18:55;;;;;;;19.58;5.30;;;;;;;19.50;68.14;102268.56;5119323;27;20035;-73
2022/06/12 08:21:21;;;;;;;11.85;4.70;;;;;;;19.72;66.35;102263.34;5118634;27;20027;-73
2022/06/12 08:23:51;;;;;;;15.82;5.50;;;;;;;19.90;65.17;102274.09;5119123;28;20031;-73
2022/06/12 08:26:19;;;;;;;15.48;4.40;;;;;;;19.87;65.92;102270.66;5119679;27;20052;-73
2022/06/12 08:28:52;;;;;;;18.92;4.78;;;;;;;19.88;63.02;102266.22;5118151;27;20115;-73
2022/06/12 08:31:23;;;;;;;15.10;3.90;;;;;;;19.79;61.82;102267.47;5119510;27;20039;-73
2022/06/12 08:33:51;;;;;;;14.15;4.45;;;;;;;19.73;62.32;102267.69;5118025;27;20042;-73
2022/06/12 08:36:18;;;;;;;13.05;4.55;;;;;;;19.69;64.71;102268.75;5115484;28;20027;-73
2022/06/12 08:38:43;;;;;;;11.85;4.53;;;;;;;19.86;64.22;102273.38;5116047;28;20028;-73
2022/06/12 08:41:20;;;;;;;14.30;4.28;;;;;;;19.80;63.28;102270.97;5116204;28;20096;-73
2022/06/12 08:43:55;;;;;;;10.80;3.70;;;;;;;19.78;65.17;102273.69;5115012;28;20035;-73
2022/06/12 08:46:29;;;;;;;13.68;3.83;;;;;;;19.92;65.59;102264.34;5116033;28;20144;-73
2022/06/12 08:49:03;;;;;;;9.43;4.18;;;;;;;20.00;63.73;102270.16;5115798;28;20080;-73
2022/06/12 08:51:50;;;;;;;15.75;3.92;;;;;;;20.02;62.77;102263.91;5115225;28;20031;-73
2022/06/12 08:54:23;;;;;;;13.82;4.15;;;;;;;19.91;62.72;102260.81;5115674;28;20034;-73
2022/06/12 08:56:53;;;;;;;8.82;3.88;;;;;;;19.73;62.73;102259.75;5114574;28;20437;-73
2022/06/12 08:59:31;;;;;;;11.65;4.38;;;;;;;19.56;64.04;102255.09;5115873;28;20024;-73
2022/06/12 09:01:56;;;;;;;13.52;4.22;;;;;;;19.52;63.25;102257.91;5115406;28;20531;-72
2022/06/12 09:04:23;;;;;;;11.40;3.90;;;;;;;19.67;59.71;102254.72;5114965;28;20115;-73
2022/06/12 09:06:56;;;;;;;14.45;4.22;;;;;;;19.81;60.38;102257.66;5115372;28;20027;-73
2022/06/12 09:09:53;;;;;;;11.90;4.35;;;;;;;19.95;62.16;102250.97;5115825;28;20169;-73
2022/06/12 09:12:39;;;;;;;16.45;4.72;;;;;;;20.12;60.57;102240.56;5108749;28;20042;-73
2022/06/12 09:15:07;;;;;;;9.15;4.70;;;;;;;20.39;58.71;102242.97;5115293;28;20114;-73
2022/06/12 09:18:11;;;;;;;14.30;4.82;;;;;;;20.50;59.31;102246.91;5114519;28;20475;-73
2022/06/12 09:20:55;;;;;;;13.75;4.57;;;;;;;20.52;58.09;102234.47;5115412;27;20375;-73
2022/06/12 09:23:37;;;;;;;12.52;4.43;;;;;;;20.64;59.65;102237.53;5115338;28;20081;-73
2022/06/12 09:26:19;;;;;;;12.50;4.13;;;;;;;20.75;56.86;102222.84;5114330;28;20022;-73
2022/06/12 09:29:10;;;;;;;12.68;3.70;;;;;;;21.12;59.05;102228.28;5115120;28;20031;-73
2022/06/12 09:31:51;;;;;;;11.02;3.17;;;;;;;21.27;53.98;102231.09;5114310;28;20027;-73
2022/06/12 09:34:35;;;;;;;14.30;3.85;;;;;;;21.56;55.87;102233.34;5114998;28;20024;-73
2022/06/12 09:40:40;;;;;;;9.20;3.05;;;;;;;22.03;53.98;102230.16;5114112;28;20085;-73
2022/06/12 09:43:17;;;;;;;11.32;3.75;;;;;;;22.15;50.94;102224.25;5083170;28;20044;-73
2022/06/12 09:46:02;;;;;;;8.65;3.08;;;;;;;22.26;54.57;102231.69;5113410;28;20117;-73
2022/06/12 09:48:42;;;;;;;9.52;2.90;;;;;;;22.54;51.87;102237.31;5114922;28;20038;-73
2022/06/12 09:51:19;;;;;;;7.63;3.17;;;;;;;22.90;50.77;102233.69;5114988;28;20133;-73
2022/06/12 09:53:55;;;;;;;7.50;3.05;;;;;;;22.98;51.68;102234.13;5113804;28;20032;-73
2022/06/12 09:56:26;;;;;;;13.52;3.60;;;;;;;22.78;49.71;102234.31;5114481;28;20074;-73
2022/06/12 09:59:15;;;;;;;9.45;3.47;;;;;;;22.61;51.83;102236.06;5114439;28;20046;-73
2022/06/12 10:01:45;;;;;;;9.55;3.38;;;;;;;22.36;48.43;102230.28;5113427;28;20490;-73
2022/06/12 10:04:21;;;;;;;10.18;3.88;;;;;;;22.29;49.69;102237.72;5114927;28;20019;-73
2022/06/12 10:06:52;;;;;;;13.07;3.70;;;;;;;22.44;53.22;102230.78;5113308;28;20379;-73
2022/06/12 10:09:23;;;;;;;8.82;4.05;;;;;;;23.04;50.30;102223.19;5114338;28;20019;-73
2022/06/12 10:12:02;;;;;;;9.80;4.13;;;;;;;23.01;50.70;102220.69;5113963;28;20035;-73
2022/06/12 10:14:56;;;;;;;12.25;3.60;;;;;;;22.77;50.90;102216.66;5113276;28;20031;-73
2022/06/12 10:17:35;;;;;;;20.25;4.15;;;;;;;22.61;52.22;102217.47;5113662;28;20039;-73
2022/06/12 10:20:15;;;;;;;7.65;3.20;;;;;;;22.82;53.40;102214.59;5113872;28;20028;-73
2022/06/12 10:22:44;;;;;;;9.75;4.57;;;;;;;22.94;47.54;102211.31;5113357;28;20012;-73
2022/06/12 10:25:21;;;;;;;13.73;4.15;;;;;;;23.11;50.67;102213.91;5114176;28;20026;-73
2022/06/12 10:27:53;;;;;;;9.65;3.92;;;;;;;22.96;48.53;102209.44;5113833;28;20019;-73
2022/06/12 10:30:35;;;;;;;13.63;4.50;;;;;;;22.59;51.88;102203.38;5113879;28;20049;-73
2022/06/12 10:33:18;;;;;;;10.95;4.00;;;;;;;22.37;51.91;102218.75;5113882;28;20025;-73
2022/06/12 10:35:55;;;;;;;9.77;4.03;;;;;;;22.51;51.98;102210.06;5112851;28;20220;-73
2022/06/12 10:38:26;;;;;;;10.45;4.18;;;;;;;22.39;53.86;102212.38;5113969;28;20031;-73
2022/06/12 10:40:56;;;;;;;9.95;3.53;;;;;;;22.63;53.98;102202.31;5113368;28;20051;-73
2022/06/12 10:43:32;;;;;;;10.65;3.63;;;;;;;23.09;52.94;102196.34;5112871;28;20038;-73
2022/06/12 10:46:19;;;;;;;9.27;4.40;;;;;;;23.23;53.03;102208.88;5113601;28;20313;-73
2022/06/12 10:48:56;;;;;;;14.20;4.05;;;;;;;22.98;49.83;102217.34;5113427;28;20092;-73
2022/06/12 10:51:30;;;;;;;8.90;3.63;;;;;;;22.53;51.36;102211.69;5113386;28;20031;-73
2022/06/12 10:54:01;;;;;;;12.68;3.45;;;;;;;22.37;52.32;102208.13;5113443;28;20060;-73
2022/06/12 10:56:35;;;;;;;12.05;3.97;;;;;;;22.61;53.46;102213.94;5112343;28;20043;-73
2022/06/12 10:59:22;;;;;;;13.20;3.38;;;;;;;22.46;53.67;102202.31;5112632;28;20031;-73
2022/06/12 11:02:06;;;;;;;10.15;3.22;;;;;;;22.13;52.52;102205.72;5113065;28;20026;-73
2022/06/12 11:04:45;;;;;;;10.50;3.25;;;;;;;22.24;55.35;102201.72;5112581;28;20531;-73
2022/06/12 11:07:22;;;;;;;10.10;3.20;;;;;;;22.10;53.74;102210.31;5113531;28;20027;-73
2022/06/12 11:10:04;;;;;;;8.40;3.38;;;;;;;21.80;53.64;102199.44;5113285;28;20028;-73
2022/06/12 11:12:47;;;;;;;9.13;3.17;;;;;;;22.26;53.18;102199.81;5113517;28;20077;-73
2022/06/12 11:15:28;;;;;;;8.00;3.50;;;;;;;22.67;49.14;102198.53;5113199;28;20459;-73
2022/06/12 11:18:14;;;;;;;9.70;3.45;;;;;;;22.83;47.75;102195.06;5112203;28;20032;-73
2022/06/12 11:20:58;;;;;;;11.57;3.05;;;;;;;23.58;51.63;102196.25;5113182;28;20483;-73
2022/06/12 11:23:45;;;;;;;10.23;3.67;;;;;;;24.15;47.72;102203.66;5113263;28;20031;-73
2022/06/12 11:26:24;;;;;;;13.57;3.47;;;;;;;23.83;46.05;102199.25;5112434;28;20050;-73
2022/06/12 11:28:58;;;;;;;10.85;3.05;;;;;;;23.56;50.26;102196.34;5112799;28;20088;-73
2022/06/12 11:32:00;;;;;;;8.75;3.28;;;;;;;23.38;48.98;102197.41;5112194;28;20060;-73
2022/06/12 11:34:54;;;;;;;8.75;3.25;;;;;;;22.79;48.75;102190.84;5113216;28;20034;-73
2022/06/12 11:37:40;;;;;;;8.20;2.90;;;;;;;22.35;52.20;102194.03;5113374;28;20099;-73
2022/06/12 11:40:41;;;;;;;11.38;3.65;;;;;;;22.54;51.89;102188.63;5112497;28;20031;-73
2022/06/12 11:43:25;;;;;;;9.00;2.80;;;;;;;22.83;49.89;102184.44;5113030;28;20054;-73
2022/06/12 11:46:01;;;;;;;10.98;3.40;;;;;;;22.79;49.65;102185.50;5112074;28;20054;-73
2022/06/12 11:48:26;;;;;;;8.77;3.53;;;;;;;22.67;48.22;102179.94;5113147;28;20031;-73
2022/06/12 11:51:01;;;;;;;7.70;3.10;;;;;;;23.51;49.10;102179.78;5112659;28;20023;-73
2022/06/12 11:53:36;;;;;;;10.85;3.28;;;;;;;25.01;45.09;102172.59;5112221;28;20282;-73
2022/06/12 11:56:22;;;;;;;7.88;2.97;;;;;;;25.71;42.57;102161.00;5112645;28;20052;-73